createdAt,value
2023-03-04T00:01:59.365Z,100073.97
2023-03-04T00:05:03.629Z,100072.78
2023-03-04T00:08:06.013Z,100077.78
2023-03-04T00:11:08.556Z,100076.72
2023-03-04T00:14:10.920Z,100082.25
2023-03-04T00:17:13.603Z,100091.31
2023-03-04T00:20:16.082Z,100080.19
2023-03-04T00:23:18.592Z,100071.25
2023-03-04T00:26:21.214Z,100089.88
2023-03-04T00:29:23.558Z,100088.50
2023-03-04T00:32:25.932Z,100075.97
2023-03-04T00:35:28.287Z,100073.31
2023-03-04T00:38:31.504Z,100074.78
2023-03-04T00:41:34.094Z,100064.59
2023-03-04T00:44:36.662Z,100063.66
2023-03-04T00:47:39.244Z,100052.63
2023-03-04T00:50:41.512Z,100054.31
2023-03-04T00:53:43.925Z,100042.34
2023-03-04T00:56:46.299Z,100053.66
2023-03-04T00:59:48.663Z,100042.25
2023-03-04T01:02:51.133Z,100028.22
2023-03-04T01:05:53.692Z,100038.13
2023-03-04T01:08:56.282Z,100027.91
2023-03-04T01:11:58.662Z,100013.41
2023-03-04T01:15:01.133Z,100024.47
2023-03-04T01:18:03.634Z,100019.78
2023-03-04T01:21:06.965Z,100010.88
2023-03-04T01:24:09.492Z,99996.94
2023-03-04T01:27:12.443Z,99991.31
2023-03-04T01:30:14.942Z,99996.09
2023-03-04T01:33:17.294Z,99992.75
2023-03-04T01:36:19.725Z,99987.59
2023-03-04T01:39:22.297Z,99983.94
2023-03-04T01:42:28.537Z,99976.13
2023-03-04T01:45:32.331Z,99969.41
2023-03-04T01:48:37.680Z,99974.63
2023-03-04T01:51:40.128Z,99967.91
2023-03-04T01:54:42.662Z,99958.34
2023-03-04T01:57:45.081Z,99952.94
2023-03-04T02:00:47.614Z,99956.09
2023-03-04T02:03:50.013Z,99952.28
2023-03-04T02:06:52.677Z,99941.53
2023-03-04T02:09:54.996Z,99942.22
2023-03-04T02:12:57.543Z,99939.97
2023-03-04T02:16:00.140Z,99936.47
2023-03-04T02:19:06.798Z,99927.56
2023-03-04T02:22:09.290Z,99933.47
2023-03-04T02:25:21.598Z,99916.03
2023-03-04T02:28:24.240Z,99920.09
2023-03-04T02:31:44.204Z,99912.28
2023-03-04T02:34:49.983Z,99887.38
2023-03-04T02:37:52.316Z,99885.53
2023-03-04T02:40:55.817Z,99876.53
2023-03-04T02:43:58.392Z,99872.63
2023-03-04T02:47:01.604Z,99866.94
2023-03-04T02:50:04.491Z,99874.25
2023-03-04T02:53:07.279Z,99872.22
2023-03-04T02:56:09.644Z,99863.50
2023-03-04T02:59:13.497Z,99860.75
2023-03-04T03:02:15.988Z,99851.13
2023-03-04T03:05:18.970Z,99854.16
2023-03-04T03:08:21.520Z,99852.22
2023-03-04T03:11:25.169Z,99839.69
2023-03-04T03:14:30.440Z,99849.66
2023-03-04T03:17:34.771Z,99824.25
2023-03-04T03:20:37.951Z,99843.63
2023-03-04T03:23:40.414Z,99846.47
2023-03-04T03:26:42.767Z,99851.19
2023-03-04T03:29:45.219Z,99842.66
2023-03-04T03:32:47.631Z,99837.75
2023-03-04T03:35:50.342Z,99837.53
2023-03-04T03:38:52.862Z,99841.50
2023-03-04T03:41:55.290Z,99840.00
2023-03-04T03:44:57.730Z,99836.84
2023-03-04T03:48:00.082Z,99822.09
2023-03-04T03:51:02.679Z,99831.91
2023-03-04T03:54:05.299Z,99829.81
2023-03-04T03:57:07.789Z,99825.25
2023-03-04T04:00:10.914Z,99830.88
2023-03-04T04:03:17.360Z,99830.28
2023-03-04T04:06:19.994Z,99815.34
2023-03-04T04:09:22.562Z,99830.19
2023-03-04T04:12:24.865Z,99816.00
2023-03-04T04:15:27.219Z,99830.59
2023-03-04T04:18:29.584Z,99806.06
2023-03-04T04:21:31.978Z,99815.56
2023-03-04T04:24:35.279Z,99818.50
2023-03-04T04:27:37.734Z,99820.13
2023-03-04T04:30:40.202Z,99823.16
2023-03-04T04:33:42.552Z,99808.88
2023-03-04T04:36:45.196Z,99809.09
2023-03-04T04:39:47.562Z,99813.00
2023-03-04T04:42:49.934Z,99810.63
2023-03-04T04:45:52.897Z,99799.66
2023-03-04T04:48:55.225Z,99805.25
2023-03-04T04:51:57.480Z,99805.84
2023-03-04T04:54:59.972Z,99800.81
2023-03-04T04:58:02.667Z,99795.09
2023-03-04T05:01:05.718Z,99801.25
2023-03-04T05:04:08.314Z,99786.88
2023-03-04T05:07:10.678Z,99803.50
2023-03-04T05:10:12.999Z,99806.28
2023-03-04T05:13:15.478Z,99810.97
2023-03-04T05:16:18.236Z,99804.19
2023-03-04T05:19:21.436Z,99799.28
2023-03-04T05:22:23.883Z,99809.84
2023-03-04T05:25:26.366Z,99798.34
2023-03-04T05:28:28.873Z,99796.84
2023-03-04T05:31:31.432Z,99805.50
2023-03-04T05:34:33.859Z,99805.13
2023-03-04T05:37:36.097Z,99796.13
2023-03-04T05:40:39.129Z,99799.03
2023-03-04T05:43:42.968Z,99793.19
2023-03-04T05:46:45.405Z,99789.81
2023-03-04T05:49:48.388Z,99802.44
2023-03-04T05:52:51.556Z,99809.44
2023-03-04T05:55:54.325Z,99813.06
2023-03-04T05:59:00.408Z,99812.41
2023-03-04T06:02:02.746Z,99813.81
2023-03-04T06:05:06.006Z,99818.97
2023-03-04T06:08:08.319Z,99817.03
2023-03-04T06:11:10.841Z,99813.06
2023-03-04T06:14:13.613Z,99814.25
2023-03-04T06:17:16.121Z,99816.09
2023-03-04T06:20:18.722Z,99804.41
2023-03-04T06:23:21.050Z,99824.16
2023-03-04T06:26:23.489Z,99815.28
2023-03-04T06:29:26.294Z,99809.22
2023-03-04T06:32:28.819Z,99799.00
2023-03-04T06:35:31.719Z,99809.06
2023-03-04T06:38:34.124Z,99808.81
2023-03-04T06:41:36.615Z,99802.91
2023-03-04T06:44:39.309Z,99798.50
2023-03-04T06:47:41.663Z,99803.69
2023-03-04T06:50:44.102Z,99796.72
2023-03-04T06:53:47.781Z,99773.47
2023-03-04T06:56:50.349Z,99793.25
2023-03-04T06:59:53.830Z,99797.19
2023-03-04T07:02:56.402Z,99787.97
2023-03-04T07:05:58.840Z,99796.91
2023-03-04T07:09:01.915Z,99795.03
2023-03-04T07:12:05.082Z,99805.19
2023-03-04T07:15:08.879Z,99801.56
2023-03-04T07:18:11.516Z,99810.84
2023-03-04T07:21:15.284Z,99807.94
2023-03-04T07:24:17.739Z,99813.81
2023-03-04T07:27:20.404Z,99807.50
2023-03-04T07:30:23.451Z,99822.25
2023-03-04T07:33:25.913Z,99800.50
2023-03-04T07:36:28.815Z,99802.88
2023-03-04T07:39:31.362Z,99803.06
2023-03-04T07:42:34.000Z,99801.56
2023-03-04T07:45:41.989Z,99797.34
2023-03-04T07:48:44.568Z,99789.81
2023-03-04T07:51:46.888Z,99794.72
2023-03-04T07:54:49.375Z,99792.13
2023-03-04T07:57:51.869Z,99798.81
2023-03-04T08:00:54.548Z,99790.47
2023-03-04T08:03:57.382Z,99783.00
2023-03-04T08:06:59.861Z,99800.78
2023-03-04T08:10:02.417Z,99785.19
2023-03-04T08:13:05.362Z,99785.72
2023-03-04T08:16:09.092Z,99799.44
2023-03-04T08:19:12.494Z,99797.88
2023-03-04T08:22:14.995Z,99784.19
2023-03-04T08:25:17.503Z,99802.00
2023-03-04T08:28:20.042Z,99802.56
2023-03-04T08:31:22.806Z,99797.03
2023-03-04T08:34:27.745Z,99797.09
2023-03-04T08:37:30.954Z,99798.75
2023-03-04T08:40:33.756Z,99795.38
2023-03-04T08:43:36.679Z,99792.13
2023-03-04T08:46:41.518Z,99797.34
2023-03-04T08:49:43.908Z,99793.34
2023-03-04T08:52:46.422Z,99801.91
2023-03-04T08:55:49.580Z,99786.31
2023-03-04T08:58:52.376Z,99772.09
2023-03-04T09:01:55.301Z,99795.78
2023-03-04T09:04:57.979Z,99794.53
2023-03-04T09:08:00.490Z,99800.88
2023-03-04T09:11:03.274Z,99809.50
2023-03-04T09:14:05.652Z,99796.81
2023-03-04T09:17:08.303Z,99805.81
2023-03-04T09:20:13.258Z,99798.94
2023-03-04T09:23:16.389Z,99803.16
2023-03-04T09:26:24.941Z,99796.13
2023-03-04T09:29:27.360Z,99802.34
2023-03-04T09:32:30.010Z,99800.94
2023-03-04T09:35:32.686Z,99801.75
2023-03-04T09:38:35.188Z,99786.75
2023-03-04T09:41:50.007Z,99790.81
2023-03-04T09:44:53.044Z,99789.81
2023-03-04T09:47:56.906Z,99788.56
2023-03-04T09:51:10.128Z,99798.78
2023-03-04T09:54:33.851Z,99784.13
2023-03-04T09:57:54.474Z,99807.63
2023-03-04T10:01:05.109Z,99815.84
2023-03-04T10:04:23.981Z,99820.00
2023-03-04T10:07:36.263Z,99815.91
2023-03-04T10:10:40.596Z,99825.06
2023-03-04T10:14:24.766Z,99809.44
2023-03-04T10:17:38.347Z,99813.13
2023-03-04T10:21:04.346Z,99821.97
2023-03-04T10:24:18.240Z,99816.34
2023-03-04T10:27:20.657Z,99815.75
2023-03-04T10:30:57.092Z,99819.34
2023-03-04T10:33:59.484Z,99825.06
2023-03-04T10:37:05.711Z,99821.34
2023-03-04T10:40:19.790Z,99827.13
2023-03-04T10:43:22.989Z,99830.72
2023-03-04T10:46:26.953Z,99821.41
2023-03-04T10:49:30.391Z,99822.69
2023-03-04T10:52:47.870Z,99819.84
2023-03-04T10:55:50.418Z,99815.94
2023-03-04T10:58:53.147Z,99817.16
2023-03-04T11:01:55.894Z,99818.25
2023-03-04T11:05:10.496Z,99827.72
2023-03-04T11:08:24.017Z,99821.63
2023-03-04T11:11:47.492Z,99808.59
2023-03-04T11:14:53.304Z,99818.28
2023-03-04T11:18:00.231Z,99824.53
2023-03-04T11:21:02.864Z,99824.31
2023-03-04T11:24:25.671Z,99813.44
2023-03-04T11:27:43.273Z,99813.84
2023-03-04T11:30:56.472Z,99815.72
2023-03-04T11:34:02.697Z,99807.34
2023-03-04T11:37:22.263Z,99811.41
2023-03-04T11:40:33.957Z,99809.97
2023-03-04T11:43:39.002Z,99810.84
2023-03-04T11:46:51.234Z,99812.88
2023-03-04T11:49:57.151Z,99821.50
2023-03-04T11:53:30.313Z,99823.47
2023-03-04T11:56:39.082Z,99838.03
2023-03-04T11:59:49.687Z,99826.59
2023-03-04T12:02:58.025Z,99829.66
2023-03-04T12:06:07.669Z,99823.78
2023-03-04T12:09:34.097Z,99816.22
2023-03-04T12:13:10.263Z,99823.41
2023-03-04T12:16:12.703Z,99827.41
2023-03-04T12:19:27.408Z,99828.19
2023-03-04T12:22:45.700Z,99826.56
2023-03-04T12:26:11.446Z,99828.19
2023-03-04T12:29:34.489Z,99834.59
2023-03-04T12:32:37.071Z,99836.09
2023-03-04T12:35:46.119Z,99829.06
2023-03-04T12:38:55.090Z,99840.69
2023-03-04T12:42:10.459Z,99831.91
2023-03-04T12:45:20.206Z,99832.75
2023-03-04T12:48:33.513Z,99842.53
2023-03-04T12:51:41.492Z,99839.31
2023-03-04T12:54:47.178Z,99833.38
2023-03-04T12:57:50.029Z,99832.63
2023-03-04T13:01:06.562Z,99852.19
2023-03-04T13:04:09.508Z,99853.91
2023-03-04T13:08:04.168Z,99859.00
2023-03-04T13:11:31.411Z,99861.31
2023-03-04T13:14:34.479Z,99870.75
2023-03-04T13:17:42.758Z,99867.88
2023-03-04T13:20:45.855Z,99883.22
2023-03-04T13:23:48.407Z,99904.69
2023-03-04T13:26:51.208Z,99896.22
2023-03-04T13:29:53.588Z,99898.84
2023-03-04T13:32:55.975Z,99908.75
2023-03-04T13:36:04.196Z,99913.91
2023-03-04T13:39:15.880Z,99913.25
2023-03-04T13:42:43.698Z,99922.81
2023-03-04T13:45:46.316Z,99917.41
2023-03-04T13:48:51.756Z,99934.44
2023-03-04T13:51:54.378Z,99919.44
2023-03-04T13:55:31.678Z,99933.59
2023-03-04T13:58:34.647Z,99934.28
2023-03-04T14:02:00.006Z,99939.91
2023-03-04T14:05:03.523Z,99937.94
2023-03-04T14:08:20.849Z,99943.69
2023-03-04T14:11:42.838Z,99939.59
2023-03-04T14:14:52.222Z,99949.22
2023-03-04T14:17:58.908Z,99951.66
2023-03-04T14:21:01.654Z,99945.22
2023-03-04T14:24:11.430Z,99942.63
2023-03-04T14:27:14.897Z,99952.66
2023-03-04T14:30:31.825Z,99952.09
2023-03-04T14:33:37.985Z,99950.69
2023-03-04T14:36:44.028Z,99955.63
2023-03-04T14:39:50.020Z,99961.34
2023-03-04T14:42:58.139Z,99958.63
2023-03-04T14:46:02.437Z,99968.94
2023-03-04T14:49:04.980Z,99949.53
2023-03-04T14:52:08.147Z,99975.00
2023-03-04T14:55:22.488Z,99968.25
2023-03-04T14:58:27.463Z,99974.91
2023-03-04T15:01:33.483Z,99952.44
2023-03-04T15:04:38.671Z,99983.41
2023-03-04T15:07:42.156Z,99983.66
2023-03-04T15:11:03.683Z,100001.63
2023-03-04T15:14:07.241Z,100008.38
2023-03-04T15:17:40.712Z,100008.78
2023-03-04T15:20:43.084Z,100018.06
2023-03-04T15:23:45.791Z,100023.16
2023-03-04T15:26:50.297Z,100010.28
2023-03-04T15:29:56.137Z,100025.25
2023-03-04T15:32:59.357Z,100020.06
2023-03-04T15:36:03.767Z,100029.84
2023-03-04T15:39:06.371Z,100030.16
2023-03-04T15:42:11.492Z,100026.56
2023-03-04T15:45:25.257Z,100054.19
2023-03-04T15:48:27.682Z,100037.34
2023-03-04T15:51:30.558Z,100035.13
2023-03-04T15:54:32.923Z,100051.69
2023-03-04T15:57:35.327Z,100056.59
2023-03-04T16:00:37.933Z,100067.59
2023-03-04T16:03:42.160Z,100049.31
2023-03-04T16:06:45.914Z,100068.88
2023-03-04T16:09:52.444Z,100054.72
2023-03-04T16:12:55.579Z,100070.66
2023-03-04T16:15:58.071Z,100086.13
2023-03-04T16:19:00.550Z,100075.50
2023-03-04T16:22:03.346Z,100073.25
2023-03-04T16:25:06.172Z,100083.03
2023-03-04T16:28:11.007Z,100084.72
2023-03-04T16:31:14.730Z,100089.13
2023-03-04T16:34:17.161Z,100094.47
2023-03-04T16:37:21.379Z,100089.53
2023-03-04T16:40:28.820Z,100097.56
2023-03-04T16:43:31.176Z,100103.53
2023-03-04T16:46:33.657Z,100106.03
2023-03-04T16:49:36.130Z,100110.97
2023-03-04T16:52:38.622Z,100118.19
2023-03-04T16:55:40.983Z,100126.03
2023-03-04T16:58:44.027Z,100106.41
2023-03-04T17:01:46.522Z,100124.69
2023-03-04T17:04:50.990Z,100124.50
2023-03-04T17:07:53.495Z,100144.28
2023-03-04T17:10:55.882Z,100145.28
2023-03-04T17:13:58.222Z,100151.84
2023-03-04T17:17:01.228Z,100155.56
2023-03-04T17:20:06.552Z,100144.41
2023-03-04T17:23:08.860Z,100164.63
2023-03-04T17:26:11.905Z,100159.25
2023-03-04T17:29:14.233Z,100151.78
2023-03-04T17:32:16.689Z,100165.59
2023-03-04T17:35:19.302Z,100158.34
2023-03-04T17:38:21.762Z,100165.34
2023-03-04T17:41:25.099Z,100172.97
2023-03-04T17:44:27.469Z,100172.09
2023-03-04T17:47:29.794Z,100170.00
2023-03-04T17:50:32.179Z,100170.78
2023-03-04T17:53:34.675Z,100167.31
2023-03-04T17:56:39.384Z,100171.84
2023-03-04T17:59:41.830Z,100180.25
2023-03-04T18:02:44.403Z,100150.16
2023-03-04T18:05:46.814Z,100168.94
2023-03-04T18:08:49.880Z,100169.47
2023-03-04T18:11:52.333Z,100159.25
2023-03-04T18:14:54.679Z,100170.41
2023-03-04T18:17:57.036Z,100175.69
2023-03-04T18:21:00.667Z,100169.88
2023-03-04T18:24:03.413Z,100177.94
2023-03-04T18:27:06.059Z,100178.13
2023-03-04T18:30:09.870Z,100175.19
2023-03-04T18:33:12.290Z,100180.47
2023-03-04T18:36:15.601Z,100171.97
2023-03-04T18:39:18.286Z,100184.31
2023-03-04T18:42:20.719Z,100182.88
2023-03-04T18:45:23.309Z,100181.59
2023-03-04T18:48:25.652Z,100185.72
2023-03-04T18:51:28.089Z,100184.97
2023-03-04T18:54:30.428Z,100192.41
2023-03-04T18:57:32.955Z,100188.97
2023-03-04T19:00:35.552Z,100181.84
2023-03-04T19:03:38.763Z,100182.69
2023-03-04T19:06:41.155Z,100182.44
2023-03-04T19:09:43.527Z,100183.44
2023-03-04T19:12:46.080Z,100184.53
2023-03-04T19:15:49.996Z,100185.59
2023-03-04T19:18:53.799Z,100185.03
2023-03-04T19:21:56.246Z,100191.38
2023-03-04T19:24:58.929Z,100193.53
2023-03-04T19:28:01.370Z,100191.31
2023-03-04T19:31:08.750Z,100187.88
2023-03-04T19:34:11.271Z,100195.91
2023-03-04T19:37:14.898Z,100190.94
2023-03-04T19:40:17.633Z,100198.38
2023-03-04T19:43:20.013Z,100187.56
2023-03-04T19:46:22.522Z,100197.75
2023-03-04T19:49:25.275Z,100194.63
2023-03-04T19:52:27.717Z,100194.91
2023-03-04T19:55:30.191Z,100147.34
2023-03-04T19:58:32.680Z,100166.59
2023-03-04T20:01:37.605Z,100201.94
2023-03-04T20:04:40.201Z,100200.59
2023-03-04T20:07:43.919Z,100191.13
2023-03-04T20:10:46.172Z,100196.97
2023-03-04T20:13:48.487Z,100209.53
2023-03-04T20:16:50.938Z,100205.44
2023-03-04T20:19:53.338Z,100208.47
2023-03-04T20:22:56.671Z,100191.19
2023-03-04T20:25:59.033Z,100197.78
2023-03-04T20:29:01.639Z,100198.81
2023-03-04T20:32:04.138Z,100206.44
2023-03-04T20:35:07.400Z,100202.34
2023-03-04T20:38:09.885Z,100186.16
2023-03-04T20:41:12.303Z,100201.41
2023-03-04T20:44:14.718Z,100197.28
2023-03-04T20:47:17.035Z,100201.41
2023-03-04T20:50:19.365Z,100191.38
2023-03-04T20:53:21.723Z,100196.53
2023-03-04T20:56:24.593Z,100196.47
2023-03-04T20:59:27.245Z,100192.72
2023-03-04T21:02:29.723Z,100195.19
2023-03-04T21:05:32.041Z,100193.75
2023-03-04T21:08:34.484Z,100198.56
2023-03-04T21:11:40.967Z,100185.72
2023-03-04T21:14:45.062Z,100195.06
2023-03-04T21:17:47.386Z,100183.38
2023-03-04T21:20:52.159Z,100189.06
2023-03-04T21:23:56.399Z,100186.16
2023-03-04T21:26:59.187Z,100196.31
2023-03-04T21:30:01.566Z,100181.06
2023-03-04T21:33:05.323Z,100183.25
2023-03-04T21:36:08.072Z,100177.78
2023-03-04T21:39:18.943Z,100172.31
2023-03-04T21:42:21.715Z,100168.31
2023-03-04T21:45:24.145Z,100170.72
2023-03-04T21:48:26.766Z,100161.78
2023-03-04T21:51:29.323Z,100162.75
2023-03-04T21:54:32.322Z,100159.41
2023-03-04T21:57:34.754Z,100152.03
2023-03-04T22:00:38.627Z,100160.44
2023-03-04T22:03:42.222Z,100150.09
2023-03-04T22:06:44.638Z,100154.41
2023-03-04T22:09:47.262Z,100154.97
2023-03-04T22:12:49.635Z,100149.38
2023-03-04T22:15:52.142Z,100143.88
2023-03-04T22:18:54.432Z,100144.78
2023-03-04T22:21:56.805Z,100140.94
2023-03-04T22:25:00.382Z,100137.88
2023-03-04T22:28:03.189Z,100140.66
2023-03-04T22:31:30.414Z,100125.47
2023-03-04T22:34:32.787Z,100121.34
2023-03-04T22:37:35.105Z,100116.63
2023-03-04T22:40:37.442Z,100107.75
2023-03-04T22:43:39.901Z,100105.53
2023-03-04T22:46:42.820Z,100102.84
2023-03-04T22:49:47.569Z,100102.09
2023-03-04T22:52:50.186Z,100096.03
2023-03-04T22:55:58.265Z,100084.13
2023-03-04T22:59:00.680Z,100066.41
2023-03-04T23:02:03.745Z,100101.28
2023-03-04T23:05:06.353Z,100090.22
2023-03-04T23:08:08.814Z,100097.38
2023-03-04T23:11:16.296Z,100094.41
2023-03-04T23:14:18.715Z,100095.63
2023-03-04T23:17:21.111Z,100095.47
2023-03-04T23:20:23.609Z,100099.75
2023-03-04T23:23:26.016Z,100084.19
2023-03-04T23:26:32.398Z,100083.09
2023-03-04T23:29:34.681Z,100072.69
2023-03-04T23:32:37.242Z,100087.09
2023-03-04T23:35:39.714Z,100088.69
2023-03-04T23:38:42.829Z,100078.91
2023-03-04T23:41:45.504Z,100073.06
2023-03-04T23:44:47.817Z,100061.34
2023-03-04T23:47:50.272Z,100066.59
2023-03-04T23:50:54.029Z,100064.50
2023-03-04T23:53:56.612Z,100064.41
2023-03-04T23:57:01.056Z,100063.25
